< < Back
Terminal Aerodrome Forecast


Current Version              Previous Versions:   1  2  3  4  5  6  7  8  9  

Terminal Aerodrome Forecast

586
FTUS42 KMLB 081122
TAFMCO
TAF
KMCO 081122Z 0812/0912 26005KT P6SM SCT250
     FM081500 26012KT P6SM FEW040 SCT250
     FM081800 25017G22KT P6SM SCT040 SCT250
     FM090000 26015G20KT P6SM VCSH BKN040=

Latest METAR

147
SAUS70 KWBC 082100 RRA
MTRMCO
METAR KMCO 082053Z 23018G28KT 10SM SCT055 BKN240 19/06 A2992 RMK AO2 PK
WND 23028/2049 SLP130 T01890056 56035


USA.gov is the U.S. government's official web portal to all federal, state and local government web resources and services.